Time;durP1;ratioP1;P1;durP2;ratioP2;P2;SDS_P1;SDS_P2;PMS_P1;PMS_P2;Temp;Humidity;BMP_temperature;BMP_pressure;BME280_temperature;BME280_humidity;BME280_pressure;Samples;Min_cycle;Max_cycle;Signal;HPM_P1;HPM_P2
2023/10/05 00:01:30;;;;;;;1999.90;999.90;;;;;;;9.16;100.00;95965.97;5065964;28;20170;-46
2023/10/05 00:03:56;;;;;;;1999.90;999.90;;;;;;;9.17;100.00;95967.53;5065946;28;20177;-47
2023/10/05 00:06:24;;;;;;;1999.90;999.90;;;;;;;9.10;100.00;95967.47;5065983;28;20214;-46
2023/10/05 00:08:54;;;;;;;1999.90;999.90;;;;;;;9.08;100.00;95964.38;5065790;28;20201;-46
2023/10/05 00:11:23;;;;;;;1999.90;999.90;;;;;;;9.09;100.00;95974.09;5065728;28;20175;-49
2023/10/05 00:13:54;;;;;;;1999.90;999.90;;;;;;;9.06;100.00;95976.78;5065058;28;20192;-53
2023/10/05 00:16:22;;;;;;;1999.90;999.90;;;;;;;9.03;100.00;95972.88;5066166;28;20170;-46
2023/10/05 00:18:52;;;;;;;1999.90;999.90;;;;;;;9.02;100.00;95965.09;5066119;28;20225;-47
2023/10/05 00:21:20;;;;;;;1999.90;999.90;;;;;;;8.97;100.00;95962.72;5065603;28;20177;-49
2023/10/05 00:23:52;;;;;;;1999.90;999.90;;;;;;;8.95;100.00;95949.47;5066331;28;20443;-49
2023/10/05 00:26:20;;;;;;;1999.90;999.90;;;;;;;8.93;100.00;95954.50;5066123;28;20179;-47
2023/10/05 00:28:55;;;;;;;1999.90;999.90;;;;;;;8.91;100.00;95948.69;5065429;28;20198;-46
2023/10/05 00:31:24;;;;;;;1999.90;999.90;;;;;;;8.89;100.00;95950.97;5066010;28;20166;-51
2023/10/05 00:33:55;;;;;;;1999.90;999.90;;;;;;;8.81;100.00;95954.03;5065414;28;20175;-46
2023/10/05 00:36:21;;;;;;;1999.90;999.90;;;;;;;8.81;100.00;95949.38;5065421;28;20162;-46
2023/10/05 00:38:46;;;;;;;1999.90;999.90;;;;;;;8.84;100.00;95948.63;5065806;28;20189;-48
2023/10/05 00:41:13;;;;;;;1999.90;999.90;;;;;;;8.81;100.00;95943.94;5065800;28;20166;-46
2023/10/05 00:43:39;;;;;;;1999.90;999.90;;;;;;;8.79;100.00;95940.81;5065260;28;20189;-50
2023/10/05 00:46:06;;;;;;;1999.90;999.90;;;;;;;8.79;100.00;95950.91;5065712;28;20167;-46
2023/10/05 00:48:42;;;;;;;1999.90;999.90;;;;;;;8.79;100.00;95942.75;5065014;28;20216;-45
2023/10/05 00:51:23;;;;;;;1999.90;999.90;;;;;;;8.77;100.00;95931.44;5065620;28;20159;-46
2023/10/05 00:53:49;;;;;;;1999.90;999.90;;;;;;;8.74;100.00;95927.53;5065568;28;20162;-52
2023/10/05 00:56:15;;;;;;;1999.90;999.90;;;;;;;8.70;100.00;95931.38;5065402;28;20238;-49
2023/10/05 00:58:46;;;;;;;1999.90;999.90;;;;;;;8.69;100.00;95936.06;5065036;28;20207;-46
2023/10/05 01:01:15;;;;;;;1999.90;999.90;;;;;;;8.65;100.00;95940.69;5065334;28;20350;-48
2023/10/05 01:06:39;;;;;;;1999.90;999.90;;;;;;;8.60;100.00;95938.31;5065355;28;20214;-51
2023/10/05 01:09:11;;;;;;;1999.90;999.90;;;;;;;-143.11;100.00;65634.97;5065167;28;20349;-50
2023/10/05 01:11:52;;;;;;;1999.90;999.90;;;;;;;-143.11;100.00;65634.97;5064363;28;20187;-48
2023/10/05 01:14:18;;;;;;;1999.90;999.90;;;;;;;-143.11;100.00;65634.97;5065117;28;20213;-47
2023/10/05 01:16:44;;;;;;;1999.90;999.90;;;;;;;-143.11;100.00;65634.97;5065310;28;20167;-48
2023/10/05 01:19:09;;;;;;;1999.90;999.90;;;;;;;-143.11;100.00;65634.97;5064543;28;20196;-50
2023/10/05 01:21:36;;;;;;;1999.90;999.90;;;;;;;-143.11;100.00;65634.97;5064461;28;20162;-50
2023/10/05 01:24:02;;;;;;;1999.90;999.90;;;;;;;-143.11;100.00;65634.97;5065031;28;20166;-50
2023/10/05 01:26:28;;;;;;;1999.90;999.90;;;;;;;-143.11;100.00;65634.97;5063663;28;20164;-49
2023/10/05 01:28:53;;;;;;;1999.90;999.90;;;;;;;-143.11;100.00;65634.97;5064860;28;20304;-48
2023/10/05 01:31:21;;;;;;;1999.90;999.90;;;;;;;-143.11;100.00;65634.97;5064331;28;20162;-47
2023/10/05 01:33:47;;;;;;;1999.90;999.90;;;;;;;8.60;100.00;95938.31;5064269;28;20170;-48
2023/10/05 01:36:19;;;;;;;1999.90;999.90;;;;;;;8.41;100.00;95902.41;5064265;28;20163;-49
2023/10/05 01:38:45;;;;;;;1999.90;999.90;;;;;;;8.35;100.00;95904.69;5064700;28;20161;-45
2023/10/05 01:41:16;;;;;;;1999.90;999.90;;;;;;;8.29;100.00;95911.63;5064655;28;20166;-45
2023/10/05 01:43:42;;;;;;;1999.90;999.90;;;;;;;8.28;100.00;95910.06;5064134;28;20200;-45
2023/10/05 01:46:10;;;;;;;1999.90;999.90;;;;;;;8.22;100.00;95911.56;5064538;28;20166;-50
2023/10/05 01:48:39;;;;;;;1999.90;999.90;;;;;;;8.24;100.00;95909.25;5063911;28;20189;-45
2023/10/05 01:51:14;;;;;;;1999.90;999.90;;;;;;;8.24;100.00;95900.31;5064527;28;20169;-47
2023/10/05 01:53:40;;;;;;;1999.90;999.90;;;;;;;8.20;100.00;95907.63;5064083;28;20176;-45
2023/10/05 01:56:17;;;;;;;1999.90;999.90;;;;;;;8.15;100.00;95911.47;5063918;28;20169;-46
2023/10/05 01:58:43;;;;;;;1999.90;999.90;;;;;;;8.14;100.00;95907.19;5064402;28;20185;-46
2023/10/05 02:01:10;;;;;;;1999.90;999.90;;;;;;;8.14;100.00;95909.91;5063863;28;20173;-46
2023/10/05 02:03:36;;;;;;;1999.90;999.90;;;;;;;8.09;100.00;95906.75;5063798;28;20209;-47
2023/10/05 02:06:11;;;;;;;1999.90;999.90;;;;;;;8.07;100.00;95898.94;5063658;28;20213;-47
2023/10/05 02:08:37;;;;;;;1999.90;999.90;;;;;;;8.01;100.00;95902.41;5064296;28;20195;-45
2023/10/05 02:11:04;;;;;;;1999.90;999.90;;;;;;;7.98;100.00;95895.75;5063433;28;20182;-47
2023/10/05 02:13:31;;;;;;;1999.90;999.90;;;;;;;7.92;100.00;95886.38;5063745;28;20158;-47
2023/10/05 02:15:59;;;;;;;1999.90;999.90;;;;;;;7.91;100.00;95884.03;5064256;28;20162;-47
2023/10/05 02:18:25;;;;;;;1999.90;999.90;;;;;;;7.86;100.00;95882.41;5063743;28;20168;-46
2023/10/05 02:20:57;;;;;;;1999.90;999.90;;;;;;;7.85;100.00;95870.00;5064150;28;20190;-47
2023/10/05 02:23:25;;;;;;;1999.90;999.90;;;;;;;7.85;100.00;95859.13;5063994;28;20478;-47
2023/10/05 02:26:07;;;;;;;1999.90;999.90;;;;;;;7.85;100.00;95850.97;5063569;28;20166;-50
2023/10/05 02:28:33;;;;;;;1999.90;999.90;;;;;;;7.87;100.00;95840.47;5064165;28;20185;-48
2023/10/05 02:31:00;;;;;;;1999.90;999.90;;;;;;;7.87;100.00;95840.47;5063580;28;20180;-46
2023/10/05 02:33:27;;;;;;;1999.90;999.90;;;;;;;7.90;100.00;95828.88;5063719;28;20154;-51
2023/10/05 02:35:56;;;;;;;1999.90;999.90;;;;;;;7.85;100.00;95831.94;5064043;28;20169;-51
2023/10/05 02:38:23;;;;;;;1999.90;999.90;;;;;;;7.86;100.00;95819.91;5067477;28;20233;-46
2023/10/05 02:40:55;;;;;;;1999.90;999.90;;;;;;;7.82;100.00;95810.94;5067494;28;20159;-47
2023/10/05 02:43:28;;;;;;;1999.90;999.90;;;;;;;7.78;100.00;95812.84;5068089;28;20146;-45
2023/10/05 02:46:08;;;;;;;1999.90;999.90;;;;;;;7.74;100.00;95819.38;5067497;28;20169;-47
2023/10/05 02:48:35;;;;;;;1999.90;999.90;;;;;;;7.74;100.00;95803.88;5068199;28;20189;-46
2023/10/05 02:51:05;;;;;;;1999.90;999.90;;;;;;;7.71;100.00;95810.06;5067874;28;20421;-48
2023/10/05 02:53:34;;;;;;;1999.90;999.90;;;;;;;7.68;100.00;95802.63;5067315;28;20154;-48
2023/10/05 02:56:03;;;;;;;1999.90;999.90;;;;;;;7.72;100.00;95808.13;5067847;28;20216;-48
2023/10/05 02:58:29;;;;;;;1999.90;999.90;;;;;;;7.70;100.00;95797.63;5067229;28;20185;-50
2023/10/05 03:00:54;;;;;;;1999.90;999.90;;;;;;;7.67;100.00;95795.66;5066844;28;20165;-48
2023/10/05 03:03:20;;;;;;;1999.90;999.90;;;;;;;7.70;100.00;95807.69;5067171;28;20153;-48
2023/10/05 03:05:45;;;;;;;1999.90;999.90;;;;;;;7.72;100.00;95795.28;5067023;28;20305;-48
2023/10/05 03:08:10;;;;;;;1999.90;999.90;;;;;;;7.73;100.00;95783.28;5066967;28;20192;-46
2023/10/05 03:10:37;;;;;;;1999.90;999.90;;;;;;;7.74;100.00;95781.34;5067026;28;20158;-47
2023/10/05 03:13:03;;;;;;;1999.90;999.90;;;;;;;7.73;100.00;95780.56;5066971;28;20273;-47
2023/10/05 03:15:29;;;;;;;1999.90;999.90;;;;;;;7.72;100.00;95767.34;5066861;28;20182;-49
2023/10/05 03:17:58;;;;;;;1999.90;999.90;;;;;;;7.76;100.00;95763.50;5067036;28;20198;-47
2023/10/05 03:20:24;;;;;;;1999.90;999.90;;;;;;;7.81;100.00;95755.00;5066736;28;20181;-48
2023/10/05 03:22:54;;;;;;;1999.90;999.90;;;;;;;7.85;100.00;95749.59;5066692;28;20177;-51
2023/10/05 03:25:20;;;;;;;1999.90;999.90;;;;;;;7.86;100.00;95751.94;5066377;28;20185;-49
2023/10/05 03:27:46;;;;;;;1999.90;999.90;;;;;;;7.91;100.00;95748.88;5066549;28;20202;-51
2023/10/05 03:30:14;;;;;;;1999.90;999.90;;;;;;;7.93;100.00;95745.75;5067088;28;20176;-49
2023/10/05 03:32:40;;;;;;;1999.90;999.90;;;;;;;7.91;100.00;95743.44;5067318;28;20170;-46
2023/10/05 03:35:08;;;;;;;1999.90;999.90;;;;;;;7.97;100.00;95736.47;5066705;28;20170;-45
2023/10/05 03:37:34;;;;;;;1999.90;999.90;;;;;;;8.02;100.00;95738.84;5066403;28;20193;-48
2023/10/05 03:42:31;;;;;;;1999.90;999.90;;;;;;;8.08;100.00;95740.03;5067391;28;20146;-49
2023/10/05 03:45:04;;;;;;;1999.90;999.90;;;;;;;8.05;100.00;95746.22;5066393;28;20353;-49
2023/10/05 03:47:30;;;;;;;1999.90;999.90;;;;;;;8.09;100.00;95733.44;5066016;28;20167;-45
2023/10/05 03:49:57;;;;;;;1999.90;999.90;;;;;;;8.08;100.00;95729.16;5065342;28;20174;-48
2023/10/05 03:52:29;;;;;;;1999.90;999.90;;;;;;;8.10;100.00;95735.03;5066339;28;20233;-48
2023/10/05 03:54:54;;;;;;;1999.90;999.90;;;;;;;8.12;100.00;95729.22;5066584;28;20170;-49
2023/10/05 03:57:21;;;;;;;1999.90;999.90;;;;;;;8.11;100.00;95714.81;5066024;28;20197;-46
2023/10/05 03:59:46;;;;;;;1999.90;999.90;;;;;;;8.10;100.00;95715.19;5066010;28;20174;-48
2023/10/05 04:02:13;;;;;;;1999.90;999.90;;;;;;;8.09;100.00;95728.00;5065966;28;20180;-47
2023/10/05 04:04:42;;;;;;;1999.90;999.90;;;;;;;8.12;100.00;95715.63;5066541;28;20167;-45
2023/10/05 04:07:08;;;;;;;1999.90;999.90;;;;;;;8.14;100.00;95703.19;5066529;28;20178;-50
2023/10/05 04:09:35;;;;;;;1999.90;999.90;;;;;;;8.12;100.00;95705.50;5066191;28;20213;-50
2023/10/05 04:12:03;;;;;;;1999.90;999.90;;;;;;;8.12;100.00;95705.50;5065851;28;20232;-46
2023/10/05 04:14:29;;;;;;;1999.90;999.90;;;;;;;8.07;100.00;95707.78;5066251;28;20170;-54
2023/10/05 04:16:56;;;;;;;1999.90;999.90;;;;;;;8.02;100.00;95708.94;5065766;28;20237;-45
2023/10/05 04:19:22;;;;;;;1999.90;999.90;;;;;;;7.97;100.00;95703.09;5066146;28;20174;-51
2023/10/05 04:21:48;;;;;;;1999.90;999.90;;;;;;;7.93;100.00;95697.59;5065501;28;20166;-50
2023/10/05 04:24:14;;;;;;;1999.90;999.90;;;;;;;7.91;100.00;95699.94;5065830;28;20173;-49
2023/10/05 04:26:44;;;;;;;1999.90;999.90;;;;;;;7.92;100.00;95697.97;5065490;28;20170;-52
2023/10/05 04:29:10;;;;;;;1999.90;999.90;;;;;;;7.84;100.00;95705.31;5065930;28;20193;-49
2023/10/05 04:31:36;;;;;;;1999.90;999.90;;;;;;;7.79;100.00;95707.63;5065799;28;20173;-50
2023/10/05 04:34:05;;;;;;;1999.90;999.90;;;;;;;7.76;100.00;95703.69;5065320;28;20170;-47
2023/10/05 04:36:32;;;;;;;1999.90;999.90;;;;;;;7.77;100.00;95704.47;5065837;28;20240;-49
2023/10/05 04:38:57;;;;;;;1999.90;999.90;;;;;;;7.72;100.00;95702.88;5065313;28;20178;-46
2023/10/05 04:41:38;;;;;;;1999.90;999.90;;;;;;;7.70;100.00;95705.22;5065267;28;20393;-46
2023/10/05 04:44:06;;;;;;;1999.90;999.90;;;;;;;7.69;100.00;95692.78;5064835;28;20165;-47
2023/10/05 04:46:32;;;;;;;1999.90;999.90;;;;;;;7.71;100.00;95687.75;5065666;28;20180;-48
2023/10/05 04:49:08;;;;;;;1999.90;999.90;;;;;;;7.67;100.00;95689.66;5065204;28;20227;-49
2023/10/05 04:51:37;;;;;;;1999.90;999.90;;;;;;;7.67;100.00;95678.78;5065429;28;20454;-48
2023/10/05 04:54:02;;;;;;;1999.90;999.90;;;;;;;7.68;100.00;95674.91;5065491;28;20197;-47
2023/10/05 04:56:40;;;;;;;1999.90;999.90;;;;;;;7.67;100.00;95670.63;5065687;28;20176;-47
2023/10/05 05:07:06;;;;;;;1999.90;999.90;;;;;;;7.61;100.00;95642.22;5065859;28;20154;-52
2023/10/05 05:09:34;;;;;;;1999.90;999.90;;;;;;;7.64;100.00;95630.63;5064450;28;20182;-50
2023/10/05 05:12:04;;;;;;;1999.90;999.90;;;;;;;7.63;100.00;95618.19;5065095;28;20185;-54
2023/10/05 05:14:32;;;;;;;1999.90;999.90;;;;;;;7.58;100.00;95618.53;5064502;28;20382;-51
2023/10/05 05:16:58;;;;;;;1999.90;999.90;;;;;;;7.59;100.00;95617.38;5064221;28;20474;-47
2023/10/05 05:19:25;;;;;;;1999.90;999.90;;;;;;;7.59;100.00;95622.03;5065005;28;20170;-48
2023/10/05 05:21:50;;;;;;;1999.90;999.90;;;;;;;7.66;100.00;95617.44;5065095;28;20228;-47
2023/10/05 05:24:15;;;;;;;1999.90;999.90;;;;;;;7.72;100.00;95601.56;5064093;28;20166;-52
2023/10/05 05:26:41;;;;;;;1999.90;999.90;;;;;;;7.74;100.00;95597.28;5064308;28;20245;-50
2023/10/05 05:29:07;;;;;;;1999.90;999.90;;;;;;;7.78;100.00;95592.66;5064126;28;20270;-49
2023/10/05 05:31:33;;;;;;;1999.90;999.90;;;;;;;7.80;100.00;95595.78;5064871;28;20166;-48
2023/10/05 05:33:59;;;;;;;1999.90;999.90;;;;;;;7.86;100.00;95604.34;5064737;28;20172;-47
2023/10/05 05:36:24;;;;;;;1999.90;999.90;;;;;;;7.93;100.00;95616.03;5064122;28;20199;-52
2023/10/05 05:38:50;;;;;;;1999.90;999.90;;;;;;;7.98;100.00;95634.69;5064055;28;20166;-50
2023/10/05 05:41:16;;;;;;;1999.90;999.90;;;;;;;8.10;100.00;95637.13;5063894;28;20162;-50
2023/10/05 05:43:42;;;;;;;1999.90;999.90;;;;;;;8.38;100.00;95631.81;5064103;28;20166;-48
2023/10/05 05:46:12;;;;;;;1999.90;999.90;;;;;;;8.67;100.00;95644.34;5064388;28;20174;-51
2023/10/05 05:48:48;;;;;;;1999.90;999.90;;;;;;;8.86;100.00;95678.66;5064274;28;20189;-49
2023/10/05 05:51:17;;;;;;;1999.90;999.90;;;;;;;9.17;100.00;95700.53;5064367;28;20158;-50
2023/10/05 05:53:44;;;;;;;1999.90;999.90;;;;;;;10.16;100.00;95723.16;5064253;28;20163;-50
2023/10/05 05:56:16;;;;;;;1999.90;999.90;;;;;;;11.25;100.00;95785.69;5063773;28;20171;-51
2023/10/05 05:58:50;;;;;;;1999.90;999.90;;;;;;;12.24;100.00;95907.13;5063603;28;20264;-51
2023/10/05 06:01:20;;;;;;;1999.90;999.90;;;;;;;13.18;100.00;96018.03;5063923;28;20244;-49
2023/10/05 06:03:49;;;;;;;1999.90;999.90;;;;;;;13.66;100.00;96108.59;5063778;28;20162;-52
2023/10/05 06:06:19;;;;;;;1999.90;999.90;;;;;;;13.92;100.00;96143.66;5063613;28;20247;-49
2023/10/05 06:08:44;;;;;;;1999.90;999.90;;;;;;;14.10;100.00;96149.75;5063332;28;20315;-47
2023/10/05 06:11:12;;;;;;;1999.90;999.90;;;;;;;14.93;100.00;96163.78;5063174;28;20184;-46
2023/10/05 06:13:38;;;;;;;1999.90;999.90;;;;;;;14.95;100.00;96177.91;5063517;28;20166;-46
2023/10/05 06:16:05;;;;;;;1999.90;999.90;;;;;;;14.80;100.00;96190.28;5063511;28;20169;-50
2023/10/05 06:18:31;;;;;;;1999.90;999.90;;;;;;;14.25;100.00;96201.47;5064068;28;20161;-51
2023/10/05 06:20:57;;;;;;;1999.90;999.90;;;;;;;14.36;100.00;96191.16;5063480;28;20173;-46
2023/10/05 06:23:22;;;;;;;1999.90;999.90;;;;;;;14.74;100.00;96198.19;5063476;28;20279;-46
2023/10/05 06:25:48;;;;;;;1999.90;999.90;;;;;;;15.05;100.00;96191.50;5063864;28;20170;-49
2023/10/05 06:28:13;;;;;;;1999.90;999.90;;;;;;;15.22;100.00;96193.28;5063863;28;20201;-49
2023/10/05 06:30:39;;;;;;;1999.90;999.90;;;;;;;15.56;100.00;96185.72;5063409;28;20208;-47
2023/10/05 06:33:07;;;;;;;1999.90;999.90;;;;;;;15.67;100.00;96197.38;5063346;28;20166;-50
2023/10/05 06:35:32;;;;;;;1999.90;999.90;;;;;;;15.07;100.00;96191.91;5063355;28;20166;-48
2023/10/05 06:37:58;;;;;;;1999.90;999.90;;;;;;;14.75;100.00;96180.50;5063425;28;20166;-47
2023/10/05 06:40:23;;;;;;;1999.90;999.90;;;;;;;14.46;100.00;96178.47;5063079;28;20165;-50
2023/10/05 06:42:49;;;;;;;1999.90;999.90;;;;;;;14.05;100.00;96181.19;5063916;28;20240;-48
2023/10/05 06:45:15;;;;;;;1999.90;999.90;;;;;;;14.99;100.00;96171.19;5063841;28;20189;-47
2023/10/05 06:47:41;;;;;;;1999.90;999.90;;;;;;;16.74;100.00;96173.13;5063826;28;20177;-46
2023/10/05 06:50:08;;;;;;;1999.90;999.90;;;;;;;18.15;100.00;96168.03;5063359;28;20253;-47
2023/10/05 06:52:43;;;;;;;1999.90;999.90;;;;;;;18.93;100.00;96175.84;5063305;28;20178;-47
2023/10/05 06:55:12;;;;;;;1999.90;999.90;;;;;;;19.62;100.00;96177.78;5063150;28;20169;-48
2023/10/05 06:57:39;;;;;;;1999.90;999.90;;;;;;;20.08;100.00;96177.13;5062985;28;20205;-49
2023/10/05 07:00:16;;;;;;;1999.90;999.90;;;;;;;20.30;100.00;96180.78;5063619;28;20170;-47
2023/10/05 07:02:45;;;;;;;1999.90;999.90;;;;;;;20.40;100.00;96178.88;5063717;28;20158;-49
2023/10/05 07:05:11;;;;;;;1999.90;999.90;;;;;;;20.36;100.00;96183.78;5062991;28;20323;-49
2023/10/05 07:07:37;;;;;;;1999.90;999.90;;;;;;;19.86;100.00;96184.56;5063033;28;20169;-48
2023/10/05 07:10:06;;;;;;;1999.90;999.90;;;;;;;19.81;100.00;96190.66;5063228;28;20246;-46
2023/10/05 07:12:35;;;;;;;1999.90;999.90;;;;;;;20.03;100.00;96188.75;5062782;28;20170;-55
2023/10/05 07:15:01;;;;;;;1999.90;999.90;;;;;;;21.21;100.00;96185.94;5063005;28;20166;-47
2023/10/05 07:17:26;;;;;;;1999.90;999.90;;;;;;;21.91;100.00;96186.03;5063107;28;20498;-52
2023/10/05 07:19:53;;;;;;;1999.90;999.90;;;;;;;22.20;100.00;96178.09;5063007;28;20170;-52
2023/10/05 07:22:19;;;;;;;1999.90;999.90;;;;;;;22.65;100.00;96182.25;5062858;28;20177;-54
2023/10/05 07:24:45;;;;;;;1999.90;999.90;;;;;;;22.84;100.00;96190.16;5065518;28;20178;-51
2023/10/05 07:27:11;;;;;;;1999.90;999.90;;;;;;;23.71;100.00;96199.38;5066606;28;20166;-50
2023/10/05 07:29:36;;;;;;;1999.90;999.90;;;;;;;24.61;100.00;96207.38;5066975;28;20247;-49
2023/10/05 07:32:05;;;;;;;1999.90;999.90;;;;;;;24.63;100.00;96212.53;5066501;28;20166;-48
2023/10/05 07:34:31;;;;;;;1999.90;999.90;;;;;;;25.18;100.00;96205.28;5066562;28;20193;-52
2023/10/05 07:36:57;;;;;;;1999.90;999.90;;;;;;;25.38;100.00;96205.44;5066591;28;20215;-47
2023/10/05 07:39:23;;;;;;;1999.90;999.90;;;;;;;25.24;99.31;96197.78;5067265;28;20248;-52
2023/10/05 07:41:49;;;;;;;1999.90;999.90;;;;;;;24.50;100.00;96207.13;5066902;28;20216;-50
2023/10/05 07:44:15;;;;;;;1999.90;999.90;;;;;;;24.03;100.00;96206.25;5066394;28;20193;-56
2023/10/05 07:46:40;;;;;;;1999.90;999.90;;;;;;;24.96;100.00;96200.03;5066263;28;20169;-51
2023/10/05 07:49:06;;;;;;;1999.90;999.90;;;;;;;24.57;100.00;96206.00;5066161;28;20217;-53
2023/10/05 07:51:31;;;;;;;1999.90;999.90;;;;;;;24.15;100.00;96208.84;5066708;28;20165;-51
2023/10/05 07:53:58;;;;;;;1999.90;999.90;;;;;;;24.30;100.00;96198.53;5066165;28;20166;-51
2023/10/05 07:56:24;;;;;;;1999.90;999.90;;;;;;;24.16;100.00;96204.06;5066071;28;20165;-53
2023/10/05 07:58:49;;;;;;;1999.90;999.90;;;;;;;23.84;100.00;96210.34;5065969;28;20192;-48
2023/10/05 08:01:15;;;;;;;1999.90;999.90;;;;;;;23.86;100.00;96203.03;5066318;28;20173;-50
2023/10/05 08:03:40;;;;;;;1999.90;999.90;;;;;;;24.50;100.00;96197.97;5066298;28;20173;-50
2023/10/05 08:06:09;;;;;;;1999.90;999.90;;;;;;;24.66;100.00;96209.53;5065864;28;20240;-48
2023/10/05 08:08:35;;;;;;;1999.90;999.90;;;;;;;25.97;100.00;96206.28;5066200;28;20286;-50
2023/10/05 08:11:00;;;;;;;1999.90;999.90;;;;;;;25.12;100.00;96212.78;5065751;28;20177;-48
2023/10/05 08:13:27;;;;;;;1999.90;999.90;;;;;;;24.17;100.00;96214.75;5066401;28;20169;-51
2023/10/05 08:15:53;;;;;;;1999.90;999.90;;;;;;;23.43;100.00;96219.41;5065439;28;20486;-49
2023/10/05 08:18:19;;;;;;;1999.90;999.90;;;;;;;23.43;100.00;96205.47;5065695;28;20241;-48
2023/10/05 08:20:44;;;;;;;1999.90;999.90;;;;;;;22.57;100.00;96203.28;5065450;28;20166;-51
2023/10/05 08:23:09;;;;;;;1999.90;999.90;;;;;;;22.27;100.00;96211.22;5065578;28;20166;-47
2023/10/05 08:25:35;;;;;;;1999.90;999.90;;;;;;;21.29;100.00;96223.34;5066051;28;20196;-48
2023/10/05 08:28:01;;;;;;;1999.90;999.90;;;;;;;20.59;100.00;96220.25;5065440;28;20278;-49
2023/10/05 08:30:26;;;;;;;1999.90;999.90;;;;;;;20.75;100.00;96220.09;5065821;28;20176;-49
2023/10/05 08:32:53;;;;;;;1999.90;999.90;;;;;;;20.75;100.00;96228.41;5065820;28;20170;-50
2023/10/05 08:35:18;;;;;;;1999.90;999.90;;;;;;;20.69;100.00;96227.41;5065579;28;20165;-50
2023/10/05 08:37:48;;;;;;;1999.90;999.90;;;;;;;20.55;100.00;96236.25;5066061;28;20166;-50
2023/10/05 08:43:08;;;;;;;1999.90;999.90;;;;;;;21.09;100.00;96220.09;5066549;28;20160;-50
2023/10/05 08:45:47;;;;;;;1999.90;999.90;;;;;;;20.78;100.00;96219.19;5066002;28;20204;-49
2023/10/05 08:48:19;;;;;;;1999.90;999.90;;;;;;;20.70;100.00;96223.44;5065948;28;20201;-51
2023/10/05 08:50:48;;;;;;;1999.90;999.90;;;;;;;20.69;100.00;96219.09;5065488;28;20166;-50
2023/10/05 08:53:14;;;;;;;1999.90;999.90;;;;;;;21.56;100.00;96226.28;5064765;28;20215;-49
2023/10/05 08:55:43;;;;;;;1999.90;999.90;;;;;;;21.37;100.00;96226.63;5064770;28;20166;-48
2023/10/05 08:58:09;;;;;;;1999.90;999.90;;;;;;;21.40;100.00;96228.50;5065245;28;20264;-50
2023/10/05 09:00:40;;;;;;;1999.90;999.90;;;;;;;21.32;100.00;96219.66;5065409;28;20166;-51
2023/10/05 09:03:28;;;;;;;1999.90;999.90;;;;;;;20.75;100.00;96222.84;5065396;28;20158;-49
2023/10/05 09:06:13;;;;;;;1999.90;999.90;;;;;;;22.18;100.00;96233.44;5065584;28;20225;-49
2023/10/05 09:08:51;;;;;;;1999.90;999.90;;;;;;;23.07;100.00;96247.28;5065407;28;20231;-51
2023/10/05 09:11:20;;;;;;;1999.90;999.90;;;;;;;22.71;100.00;96252.78;5065269;28;20207;-50
2023/10/05 09:13:46;;;;;;;1999.90;999.90;;;;;;;23.67;100.00;96256.59;5065057;28;20194;-51
2023/10/05 09:16:22;;;;;;;1999.90;999.90;;;;;;;24.26;100.00;96250.25;5064668;28;20173;-49
2023/10/05 09:18:48;;;;;;;1999.90;999.90;;;;;;;24.78;100.00;96250.47;5064967;28;20172;-48
2023/10/05 09:21:18;;;;;;;1999.90;999.90;;;;;;;24.30;100.00;96251.59;5064309;28;20166;-46
2023/10/05 09:23:44;;;;;;;1999.90;999.90;;;;;;;23.84;100.00;96255.00;5064260;28;20210;-52
2023/10/05 09:26:33;;;;;;;1999.90;999.90;;;;;;;24.45;100.00;96249.69;5064385;28;20169;-47
2023/10/05 09:29:20;;;;;;;1999.90;999.90;;;;;;;25.12;100.00;96238.75;5064643;28;20205;-49
2023/10/05 09:31:50;;;;;;;1999.90;999.90;;;;;;;25.56;100.00;96236.06;5064985;28;20169;-52
2023/10/05 09:34:17;;;;;;;1999.90;999.90;;;;;;;25.06;100.00;96237.84;5064695;28;20177;-46
2023/10/05 09:36:43;;;;;;;1999.90;999.90;;;;;;;24.84;100.00;96242.97;5064316;28;20291;-49
2023/10/05 09:39:14;;;;;;;1999.90;999.90;;;;;;;25.72;100.00;96237.63;5063793;28;20178;-46
2023/10/05 09:41:42;;;;;;;1999.90;999.90;;;;;;;24.82;100.00;96245.47;5064694;28;20241;-50
2023/10/05 09:44:15;;;;;;;1999.90;999.90;;;;;;;24.67;100.00;96249.44;5064052;28;20165;-48
2023/10/05 09:46:43;;;;;;;1999.90;999.90;;;;;;;25.14;100.00;96249.44;5063939;28;20200;-47
2023/10/05 09:49:14;;;;;;;1999.90;999.90;;;;;;;25.70;100.00;96246.50;5064413;28;20201;-50
2023/10/05 09:51:43;;;;;;;1999.90;999.90;;;;;;;25.73;100.00;96248.34;5063769;28;20169;-51
2023/10/05 09:54:10;;;;;;;1999.90;999.90;;;;;;;26.21;100.00;96240.53;5063928;28;20193;-49
2023/10/05 09:56:37;;;;;;;1999.90;999.90;;;;;;;25.99;100.00;96240.94;5063925;28;20177;-46
2023/10/05 09:59:04;;;;;;;1999.90;999.90;;;;;;;25.65;100.00;96246.41;5063787;28;20189;-49
2023/10/05 10:01:31;;;;;;;1999.90;999.90;;;;;;;25.45;100.00;96252.63;5063762;28;20236;-50
2023/10/05 10:03:59;;;;;;;1999.90;999.90;;;;;;;25.97;100.00;96237.88;5064132;28;20170;-52
2023/10/05 10:06:28;;;;;;;1999.90;999.90;;;;;;;25.82;100.00;96239.84;5063548;28;20206;-51
2023/10/05 10:08:57;;;;;;;1999.90;999.90;;;;;;;25.75;100.00;96245.06;5063583;28;20265;-51
2023/10/05 10:11:27;;;;;;;1999.90;999.90;;;;;;;26.25;100.00;96253.09;5064164;28;20174;-50
2023/10/05 10:14:00;;;;;;;1999.90;999.90;;;;;;;26.06;96.22;96246.16;5063695;28;20162;-51
2023/10/05 10:16:27;;;;;;;1999.90;999.90;;;;;;;26.46;95.90;96245.50;5064236;28;20170;-49
2023/10/05 10:18:57;;;;;;;1999.90;999.90;;;;;;;26.39;94.18;96235.47;5063329;28;20173;-47
2023/10/05 10:21:35;;;;;;;1999.90;999.90;;;;;;;26.44;94.85;96231.97;5063585;28;20178;-51
2023/10/05 10:24:09;;;;;;;1999.90;999.90;;;;;;;27.26;83.24;96242.84;5064475;28;20154;-52
2023/10/05 10:26:44;;;;;;;1999.90;999.90;;;;;;;26.29;89.62;96231.25;5063577;28;20166;-51
2023/10/05 10:29:14;;;;;;;1999.90;999.90;;;;;;;25.58;91.31;96225.16;5063579;28;20204;-52
2023/10/05 10:31:42;;;;;;;1999.90;999.90;;;;;;;25.55;94.81;96228.94;5063510;28;20245;-49
2023/10/05 10:34:28;;;;;;;1999.90;999.90;;;;;;;24.95;99.28;96234.81;5063607;28;20212;-53
2023/10/05 10:36:57;;;;;;;1999.90;999.90;;;;;;;24.06;100.00;96220.06;5064284;28;20170;-52
2023/10/05 10:39:24;;;;;;;1999.90;999.90;;;;;;;23.26;100.00;96226.56;5064035;28;20174;-49
2023/10/05 10:42:18;;;;;;;1999.90;999.90;;;;;;;23.39;100.00;96213.22;5064167;28;20181;-48
2023/10/05 10:47:16;;;;;;;1999.90;999.90;;;;;;;23.81;100.00;96205.69;5064244;28;20170;-50
2023/10/05 10:50:22;;;;;;;1999.90;999.90;;;;;;;24.90;100.00;96212.34;5063559;28;20197;-51
2023/10/05 10:52:50;;;;;;;1999.90;999.90;;;;;;;25.74;87.74;96218.34;5064141;28;20241;-50
2023/10/05 10:55:16;;;;;;;1999.90;999.90;;;;;;;25.87;82.81;96216.78;5063775;28;20206;-46
2023/10/05 10:57:47;;;;;;;1999.90;999.90;;;;;;;25.70;82.01;96204.50;5064588;28;20186;-46
2023/10/05 11:02:57;;;;;;;1999.90;999.90;;;;;;;25.79;81.13;96210.03;5068077;28;20161;-49
2023/10/05 11:05:43;;;;;;;1999.90;999.90;;;;;;;25.38;86.47;96200.63;5067168;28;20281;-51
2023/10/05 11:08:13;;;;;;;1999.90;999.90;;;;;;;24.84;85.17;96203.84;5067504;28;20264;-48
2023/10/05 11:10:42;;;;;;;1999.90;999.90;;;;;;;23.62;100.00;96204.19;5066745;28;20170;-47
2023/10/05 11:13:14;;;;;;;1999.90;999.90;;;;;;;23.41;100.00;96199.59;5066680;28;20170;-51
2023/10/05 11:15:57;;;;;;;1999.90;999.90;;;;;;;23.20;100.00;96194.94;5067352;28;20158;-46
2023/10/05 11:18:30;;;;;;;1999.90;999.90;;;;;;;22.91;100.00;96186.28;5067459;28;20162;-48